Disclaimer

Please do not use the information listed here in-flight or in-navigation, as they are not provided to us by the airports but are provided by volunteers, so they might be outdated.

Search


Regions


Airport information page

Radio informations:
Tower (TWR) - 120.75 MHz
Approach (APP) - 120.75 MHz
RDO - 5637 MHz

Airport informations:
Latitude: 37° 04' 05.95" N
Longitude: 022° 01' 31.89" E
Elevation: 26 feet - 8 meters
Operating hours: Remarks
Operating agency: Military
Timezone: UTC+2(+3DT) - Last Sunday in March to last Sunday in October
Fuel: Jet A1, without icing nhibitor.

Runway information:
17R/35L - 9260 x 148 feet< - >2822 x 45 meters

Recent METARs:
LGKL 201350Z 15012KT 9999 SCT025 SCT080 22/14 Q1015
LGKL 201420Z 16010KT 9999 FEW025 BKN030 BKN080 21/14 Q1014
LGKL 201450Z 16008KT 9999 FEW025 SCT030 BKN080 21/14 Q1014

Airport on the map: